Tyler, TX

10:30 PM CDT on October 31, 2014 (GMT -0500)
Front and Broadway | Change Station
CLOSE
Current Station
Personal Weather Station
Location: Tyler, TX
Elevation: 558 ft
Nearby Weather Stations

Elev 558 ft 32.35 °N, 95.30 °W | Updated 9 minutes ago

Clear
Clear
53.1 °F
Feels Like 53.1 °F
N
5.8
Wind Variable Wind from NE

Today
High -- | Low -- °F
--% Chance of Precip.
Yesterday
High -- | Low -- °F
Precip. -- in
7:37 AM 6:31 PM
First Quarter, 62% visible
Pressure 30.32 in
Visibility 10.0 miles
Clouds Clear
Dew Point 36 °F
Humidity 52%
Rainfall 0.00 in
Snow Depth Not available.
UV 0 out of 12
Pollen 2.70 out of 12
Air Quality Not available.
Flu Activity Not available.
METAR KTYR 010253Z 36006KT 10SM CLR 12/03 A3032 RMK AO2 SLP265 T01220033 51014

More Conditions Fewer Conditions

Pressure 30.32 in
Visibility 10.0 miles
Clouds Clear
Dew Point 36 °F
Humidity 52%
Rainfall 0.00 in
Snow Depth Not available.
UV 0 out of 12
Pollen 2.70 out of 12
Air Quality Not available.
Flu Activity Not available.
METAR KTYR 010253Z 36006KT 10SM CLR 12/03 A3032 RMK AO2 SLP265 T01220033 51014

More Conditions Fewer Conditions

10-Day Weather Forecast

Almanac

Astronomy

Oct. 31, 2014 Rise Set
Actual Time
Civil Twilight
Nautical Twilight
Astronomical Twilight
Moon
Length of Visible Light
Length of Day
Tomorrow will be .
, % of the Moon is Illuminated

Today's Extremes

State Highs State Lows

Community

WunderPhotos

Upload Photos

1,766,847 photos uploaded!

WunderBlogs® & News

Nearby

Air Quality

  Air Quality AQ Index Pollutant
Not available.

Snow Depth

Station Depth Elevation

Earthquake Activity

City Distance Mag. Time & Date
Minimum magnitude displayed is 2.5.

Coastal Water Temperatures

Place Temperature

Nearby Weather Stations